Time;durP1;ratioP1;P1;durP2;ratioP2;P2;SDS_P1;SDS_P2;PMS_P1;PMS_P2;Temp;Humidity;BMP_temperature;BMP_pressure;BME280_temperature;BME280_humidity;BME280_pressure;Samples;Min_cycle;Max_cycle;Signal;HPM_P1;HPM_P2
2023/11/14 00:01:26;;;;;;;23.80;5.68;;;12.50;99.90;;;;;;5071833;28;20021;-44
2023/11/14 00:03:52;;;;;;;22.17;5.43;;;12.50;99.90;;;;;;5077302;28;20661;-43
2023/11/14 00:06:18;;;;;;;24.88;4.85;;;12.50;99.90;;;;;;5074587;28;20161;-43
2023/11/14 00:08:43;;;;;;;20.40;4.53;;;12.50;99.90;;;;;;5075205;28;20111;-44
2023/11/14 00:11:10;;;;;;;24.42;4.72;;;12.50;99.90;;;;;;5076149;28;20028;-44
2023/11/14 00:13:36;;;;;;;21.25;4.30;;;12.50;99.90;;;;;;5072820;28;20020;-43
2023/11/14 00:16:02;;;;;;;25.52;4.53;;;12.50;99.90;;;;;;5078862;28;20023;-43
2023/11/14 00:18:27;;;;;;;23.40;4.45;;;12.50;99.90;;;;;;5069204;28;20024;-43
2023/11/14 00:20:56;;;;;;;21.30;4.82;;;12.50;99.90;;;;;;5080428;28;20027;-43
2023/11/14 00:23:24;;;;;;;20.23;4.90;;;12.50;99.90;;;;;;5068856;28;20032;-44
2023/11/14 00:25:50;;;;;;;17.48;4.78;;;12.60;99.90;;;;;;5080789;28;20113;-44
2023/11/14 00:28:19;;;;;;;28.40;4.78;;;12.60;99.90;;;;;;5068398;28;20016;-45
2023/11/14 00:30:44;;;;;;;22.50;4.75;;;12.60;99.90;;;;;;5080253;28;20098;-45
2023/11/14 00:33:10;;;;;;;21.55;5.20;;;12.60;99.90;;;;;;5067919;28;20060;-43
2023/11/14 00:35:36;;;;;;;28.10;5.60;;;12.60;99.90;;;;;;5080910;28;20501;-44
2023/11/14 00:38:01;;;;;;;30.67;7.07;;;12.70;99.90;;;;;;5068188;28;20290;-44
2023/11/14 00:40:27;;;;;;;28.88;6.03;;;12.60;99.90;;;;;;5079898;28;20024;-43
2023/11/14 00:42:52;;;;;;;26.90;4.35;;;12.70;99.90;;;;;;5071204;28;20024;-44
2023/11/14 00:45:18;;;;;;;29.08;5.70;;;12.70;99.90;;;;;;5079780;28;20036;-45
2023/11/14 00:47:44;;;;;;;22.10;4.60;;;12.80;99.90;;;;;;5081689;28;20113;-43
2023/11/14 00:50:11;;;;;;;17.50;4.55;;;12.80;99.90;;;;;;5087129;28;20117;-43
2023/11/14 00:52:37;;;;;;;22.63;4.20;;;12.80;99.90;;;;;;5086463;28;20599;-44
2023/11/14 00:55:03;;;;;;;24.85;5.85;;;12.80;99.90;;;;;;5087664;28;20021;-44
2023/11/14 00:57:29;;;;;;;30.63;5.22;;;12.80;99.90;;;;;;5087025;28;20035;-44
2023/11/14 00:59:58;;;;;;;19.30;4.55;;;12.80;99.90;;;;;;5086488;28;20043;-44
2023/11/14 01:02:23;;;;;;;20.60;4.97;;;12.90;99.90;;;;;;5087761;28;20657;-44
2023/11/14 01:04:49;;;;;;;28.40;5.15;;;12.90;99.90;;;;;;5087032;28;20039;-44
2023/11/14 01:07:14;;;;;;;20.95;4.47;;;12.90;99.90;;;;;;5085542;28;20032;-44
2023/11/14 01:09:40;;;;;;;24.52;5.47;;;12.90;99.90;;;;;;5087241;28;20032;-44
2023/11/14 01:12:06;;;;;;;27.00;5.53;;;12.90;99.90;;;;;;5086901;28;20476;-44
2023/11/14 01:14:31;;;;;;;20.88;4.18;;;12.90;99.90;;;;;;5086098;28;20024;-44
2023/11/14 01:16:57;;;;;;;23.95;4.72;;;13.00;99.90;;;;;;5087369;28;20024;-44
2023/11/14 01:19:23;;;;;;;24.90;5.20;;;13.00;99.90;;;;;;5086291;28;20024;-45
2023/11/14 01:21:48;;;;;;;19.27;4.50;;;13.00;99.90;;;;;;5087566;28;20028;-45
2023/11/14 01:24:16;;;;;;;22.02;4.65;;;13.00;99.90;;;;;;5086720;28;20764;-45
2023/11/14 01:26:42;;;;;;;27.27;5.25;;;13.00;99.90;;;;;;5087346;28;20112;-44
2023/11/14 01:29:07;;;;;;;23.80;5.88;;;13.00;99.90;;;;;;5087098;28;20103;-43
2023/11/14 01:31:33;;;;;;;27.80;5.97;;;13.00;99.90;;;;;;5087818;28;20123;-44
2023/11/14 01:33:59;;;;;;;28.38;5.15;;;13.00;99.90;;;;;;5086177;28;20113;-44
2023/11/14 01:36:24;;;;;;;20.40;3.85;;;13.00;99.90;;;;;;5086426;28;20793;-44
2023/11/14 01:38:50;;;;;;;19.90;3.90;;;13.00;99.90;;;;;;5086942;28;20152;-44
2023/11/14 01:41:16;;;;;;;23.25;4.80;;;13.00;99.90;;;;;;5086062;28;20016;-44
2023/11/14 01:43:46;;;;;;;28.58;5.40;;;13.00;99.90;;;;;;5086905;28;20036;-45
2023/11/14 01:46:17;;;;;;;24.27;5.55;;;13.00;99.90;;;;;;5086465;28;20024;-44
2023/11/14 01:48:51;;;;;;;23.58;5.13;;;13.00;99.90;;;;;;5084886;28;20067;-43
2023/11/14 01:51:18;;;;;;;28.42;5.57;;;13.00;99.90;;;;;;5076192;28;20371;-46
2023/11/14 01:53:45;;;;;;;20.40;5.57;;;13.00;99.90;;;;;;5087006;28;20120;-44
2023/11/14 01:56:15;;;;;;;21.73;5.05;;;13.00;99.90;;;;;;5072117;28;20016;-43
2023/11/14 01:58:43;;;;;;;29.40;5.53;;;13.00;99.90;;;;;;5083878;28;20724;-44
2023/11/14 02:01:13;;;;;;;25.48;5.22;;;13.00;99.90;;;;;;5070386;28;20039;-45
2023/11/14 02:03:39;;;;;;;27.77;5.60;;;13.00;99.90;;;;;;5083055;28;20193;-44
2023/11/14 02:06:07;;;;;;;27.13;5.45;;;13.00;99.90;;;;;;5070623;28;20020;-44
2023/11/14 02:08:40;;;;;;;27.00;5.28;;;13.00;99.90;;;;;;5083211;28;20036;-45
2023/11/14 02:11:06;;;;;;;25.23;4.90;;;13.00;99.90;;;;;;5071588;28;20127;-45
2023/11/14 02:13:33;;;;;;;25.45;4.97;;;13.00;99.90;;;;;;5082430;28;20035;-45
2023/11/14 02:16:01;;;;;;;24.05;4.70;;;13.00;99.90;;;;;;5072927;28;20689;-45
2023/11/14 02:18:27;;;;;;;23.63;5.40;;;13.10;99.90;;;;;;5080266;28;20383;-45
2023/11/14 02:20:52;;;;;;;23.65;4.70;;;13.10;99.90;;;;;;5076012;28;20536;-45
2023/11/14 02:23:19;;;;;;;26.95;5.53;;;13.10;99.90;;;;;;5076550;28;20396;-45
2023/11/14 02:25:54;;;;;;;24.27;4.90;;;13.00;99.90;;;;;;5079146;28;20032;-44
2023/11/14 02:28:20;;;;;;;25.92;5.78;;;13.00;99.90;;;;;;5076386;28;20429;-44
2023/11/14 02:30:46;;;;;;;24.27;4.80;;;13.10;99.90;;;;;;5079088;28;20464;-44
2023/11/14 02:33:11;;;;;;;23.55;4.80;;;13.00;99.90;;;;;;5073366;28;20495;-44
2023/11/14 02:35:37;;;;;;;25.58;5.50;;;13.00;99.90;;;;;;5081327;28;20031;-45
2023/11/14 02:38:02;;;;;;;19.75;4.47;;;13.00;99.90;;;;;;5070784;28;20093;-42
2023/11/14 02:40:28;;;;;;;19.60;4.53;;;13.10;99.90;;;;;;5070058;28;20029;-43
2023/11/14 02:42:54;;;;;;;20.00;5.10;;;13.10;99.90;;;;;;5073683;28;20024;-44
2023/11/14 02:45:25;;;;;;;22.63;5.07;;;13.10;99.90;;;;;;5062102;28;20047;-44
2023/11/14 02:47:51;;;;;;;21.85;4.80;;;13.10;99.90;;;;;;5077454;28;20434;-44
2023/11/14 02:50:48;;;;;;;24.13;5.03;;;13.10;99.90;;;;;;5082121;28;20531;-44
2023/11/14 02:53:14;;;;;;;22.40;5.38;;;13.10;99.90;;;;;;5078861;28;20048;-44
2023/11/14 02:55:43;;;;;;;24.75;4.70;;;13.10;99.90;;;;;;5082837;28;20119;-44
2023/11/14 02:58:10;;;;;;;24.30;5.70;;;13.10;99.90;;;;;;5081668;28;20035;-44
2023/11/14 03:00:36;;;;;;;28.40;5.70;;;13.10;99.90;;;;;;5082894;28;20137;-44
2023/11/14 03:03:01;;;;;;;25.67;6.70;;;13.10;99.90;;;;;;5082169;28;20086;-44
2023/11/14 03:05:27;;;;;;;19.98;4.45;;;13.10;99.90;;;;;;5081476;28;20505;-44
2023/11/14 03:07:52;;;;;;;22.40;4.65;;;13.10;99.90;;;;;;5081742;28;20020;-44
2023/11/14 03:10:21;;;;;;;20.02;4.65;;;13.10;99.90;;;;;;5081706;28;20643;-44
2023/11/14 03:12:46;;;;;;;26.70;5.05;;;13.10;99.90;;;;;;5081378;28;20071;-46
2023/11/14 03:15:12;;;;;;;33.15;5.90;;;13.10;99.90;;;;;;5081280;28;20111;-44
2023/11/14 03:17:37;;;;;;;24.02;5.63;;;13.20;99.90;;;;;;5082119;28;20795;-44
2023/11/14 03:20:06;;;;;;;21.38;5.28;;;13.20;99.90;;;;;;5081733;28;20139;-43
2023/11/14 03:22:31;;;;;;;24.13;4.65;;;13.20;99.90;;;;;;5082065;28;20024;-43
2023/11/14 03:24:57;;;;;;;23.55;4.95;;;13.10;99.90;;;;;;5081861;28;20485;-43
2023/11/14 03:27:22;;;;;;;26.15;5.72;;;13.10;99.90;;;;;;5081224;28;20020;-44
2023/11/14 03:29:51;;;;;;;23.67;5.25;;;13.10;99.90;;;;;;5081934;28;20039;-43
2023/11/14 03:32:19;;;;;;;27.58;5.20;;;13.00;99.90;;;;;;5081695;28;20021;-44
2023/11/14 03:34:48;;;;;;;23.00;4.78;;;13.00;99.90;;;;;;5080841;28;20103;-44
2023/11/14 03:37:14;;;;;;;31.08;5.13;;;13.00;99.90;;;;;;5082078;28;20110;-43
2023/11/14 03:39:41;;;;;;;23.73;4.82;;;13.00;99.90;;;;;;5081670;28;20111;-44
2023/11/14 03:42:07;;;;;;;27.85;5.75;;;13.10;99.90;;;;;;5080658;28;20032;-44
2023/11/14 03:44:33;;;;;;;24.30;4.93;;;13.10;99.90;;;;;;5080857;28;20089;-45
2023/11/14 03:46:58;;;;;;;30.70;7.07;;;13.10;99.90;;;;;;5081300;28;20119;-44
2023/11/14 03:49:24;;;;;;;22.55;5.07;;;13.10;99.90;;;;;;5080819;28;20043;-44
2023/11/14 03:51:49;;;;;;;23.77;5.95;;;13.10;99.90;;;;;;5081062;28;20032;-44
2023/11/14 03:54:15;;;;;;;24.35;5.03;;;13.10;99.90;;;;;;5080336;28;20034;-44
2023/11/14 03:56:40;;;;;;;24.70;5.25;;;13.10;99.90;;;;;;5081434;28;20024;-44
2023/11/14 03:59:06;;;;;;;26.58;5.35;;;13.10;99.90;;;;;;5081267;28;20507;-44
2023/11/14 04:01:36;;;;;;;28.77;4.93;;;13.10;99.90;;;;;;5081178;28;20826;-45
2023/11/14 04:04:01;;;;;;;24.02;5.13;;;13.10;99.90;;;;;;5080786;28;20059;-45
2023/11/14 04:06:27;;;;;;;28.73;5.20;;;13.10;99.90;;;;;;5081116;28;20066;-45
2023/11/14 04:08:53;;;;;;;32.50;6.90;;;13.10;99.90;;;;;;5080916;28;20078;-45
2023/11/14 04:11:19;;;;;;;26.90;5.15;;;13.10;99.90;;;;;;5081122;28;20040;-45
2023/11/14 04:13:48;;;;;;;27.40;5.30;;;13.00;99.90;;;;;;5080775;28;20024;-44
2023/11/14 04:16:14;;;;;;;26.45;4.70;;;13.00;99.90;;;;;;5080153;28;20023;-44
2023/11/14 04:18:40;;;;;;;23.70;5.25;;;13.10;99.90;;;;;;5081474;28;20494;-43
2023/11/14 04:21:06;;;;;;;23.15;4.90;;;13.10;99.90;;;;;;5080864;28;20133;-44
2023/11/14 04:23:31;;;;;;;22.08;5.07;;;13.10;99.90;;;;;;5080271;28;20782;-44
2023/11/14 04:25:59;;;;;;;24.85;5.13;;;13.10;99.90;;;;;;5080898;28;20028;-45
2023/11/14 04:28:24;;;;;;;27.20;5.07;;;13.10;99.90;;;;;;5080947;28;20012;-44
2023/11/14 04:30:50;;;;;;;27.25;4.78;;;13.20;99.90;;;;;;5080624;28;20920;-44
2023/11/14 04:33:17;;;;;;;21.27;4.72;;;13.20;99.90;;;;;;5080868;28;20533;-44
2023/11/14 04:35:42;;;;;;;22.98;4.57;;;13.20;99.90;;;;;;5080701;28;20021;-44
2023/11/14 04:38:08;;;;;;;23.10;5.50;;;13.20;99.90;;;;;;5080654;28;20027;-45
2023/11/14 04:40:36;;;;;;;25.95;5.13;;;13.10;99.90;;;;;;5080735;28;20395;-45
2023/11/14 04:43:02;;;;;;;23.38;4.75;;;13.10;99.90;;;;;;5080786;28;20036;-45
2023/11/14 04:45:27;;;;;;;27.02;5.35;;;13.10;99.90;;;;;;5080135;28;20081;-43
2023/11/14 04:47:56;;;;;;;27.63;5.03;;;13.10;99.90;;;;;;5081549;28;20055;-44
2023/11/14 04:50:22;;;;;;;23.20;4.78;;;13.10;99.90;;;;;;5077613;28;20028;-43
2023/11/14 04:52:47;;;;;;;26.92;5.68;;;13.10;99.90;;;;;;5071354;28;20081;-44
2023/11/14 04:55:13;;;;;;;28.25;5.50;;;13.10;99.90;;;;;;5078975;28;20028;-44
2023/11/14 04:57:39;;;;;;;22.17;4.68;;;13.10;99.90;;;;;;5069070;28;20032;-44
2023/11/14 05:00:05;;;;;;;30.73;5.25;;;13.10;99.90;;;;;;5079248;28;20034;-44
2023/11/14 05:02:30;;;;;;;27.60;5.88;;;13.20;99.90;;;;;;5068282;28;20052;-45
2023/11/14 05:04:57;;;;;;;28.05;5.97;;;13.20;99.90;;;;;;5058220;28;20151;-45
2023/11/14 05:07:23;;;;;;;28.15;6.05;;;13.20;99.90;;;;;;5072917;28;20066;-45
2023/11/14 05:09:49;;;;;;;29.05;6.00;;;13.20;99.90;;;;;;5060973;28;20139;-45
2023/11/14 05:12:18;;;;;;;24.50;5.65;;;13.20;99.90;;;;;;5072734;28;20020;-45
2023/11/14 05:14:46;;;;;;;29.75;5.57;;;13.20;99.90;;;;;;5060888;28;20038;-44
2023/11/14 05:17:12;;;;;;;25.55;5.30;;;13.20;99.90;;;;;;5070408;28;20393;-44
2023/11/14 05:19:37;;;;;;;28.10;5.05;;;13.30;99.90;;;;;;5061688;28;20035;-44
2023/11/14 05:22:03;;;;;;;28.10;5.75;;;13.30;99.90;;;;;;5068416;28;20112;-45
2023/11/14 05:24:28;;;;;;;22.95;5.60;;;13.20;99.90;;;;;;5064112;28;20043;-43
2023/11/14 05:26:54;;;;;;;25.38;4.65;;;13.20;99.90;;;;;;5064966;28;20028;-43
2023/11/14 05:29:20;;;;;;;29.85;5.60;;;13.20;99.90;;;;;;5066916;28;20086;-45
2023/11/14 05:31:45;;;;;;;28.35;6.55;;;13.20;99.90;;;;;;5064140;28;20050;-43
2023/11/14 05:34:11;;;;;;;29.02;5.55;;;13.30;99.90;;;;;;5073562;28;20028;-44
2023/11/14 05:36:37;;;;;;;24.08;5.72;;;13.30;99.90;;;;;;5065328;28;20024;-44
2023/11/14 05:39:04;;;;;;;24.65;5.78;;;13.30;99.90;;;;;;5075766;28;20040;-44
2023/11/14 05:41:30;;;;;;;24.17;4.68;;;13.30;99.90;;;;;;5082060;28;20064;-44
2023/11/14 05:43:57;;;;;;;25.83;5.53;;;13.30;99.90;;;;;;5073033;28;20147;-44
2023/11/14 05:46:22;;;;;;;26.17;5.53;;;13.30;99.90;;;;;;5081652;28;20024;-43
2023/11/14 05:48:48;;;;;;;26.58;5.00;;;13.40;99.90;;;;;;5077410;28;20692;-44
2023/11/14 05:51:14;;;;;;;22.70;4.88;;;13.40;99.90;;;;;;5083231;28;20028;-44
2023/11/14 05:53:40;;;;;;;23.95;4.82;;;13.40;99.90;;;;;;5082855;28;20601;-44
2023/11/14 05:56:06;;;;;;;28.95;5.25;;;13.40;99.90;;;;;;5082983;28;20545;-44
2023/11/14 05:58:31;;;;;;;24.25;4.95;;;13.40;99.90;;;;;;5083542;28;20028;-44
2023/11/14 06:01:01;;;;;;;26.23;5.20;;;13.40;99.90;;;;;;5083075;28;20024;-44
2023/11/14 06:03:27;;;;;;;21.88;5.18;;;13.40;99.90;;;;;;5082917;28;20032;-44
2023/11/14 06:05:53;;;;;;;21.30;4.90;;;13.40;99.90;;;;;;5082889;28;20055;-44
2023/11/14 06:08:19;;;;;;;21.60;4.57;;;13.40;99.90;;;;;;5082438;28;20314;-43
2023/11/14 06:10:44;;;;;;;21.25;4.30;;;13.30;99.90;;;;;;5083187;28;20041;-45
2023/11/14 06:13:10;;;;;;;22.60;5.07;;;13.40;99.90;;;;;;5082782;28;20566;-43
2023/11/14 06:15:38;;;;;;;21.73;4.88;;;13.30;99.90;;;;;;5082423;28;20559;-43
2023/11/14 06:18:04;;;;;;;25.75;5.25;;;13.30;99.90;;;;;;5082506;28;20027;-43
2023/11/14 06:20:30;;;;;;;24.80;5.68;;;13.30;99.90;;;;;;5082694;28;20020;-43
2023/11/14 06:22:55;;;;;;;23.48;4.95;;;13.30;99.90;;;;;;5082287;28;20066;-44
2023/11/14 06:25:21;;;;;;;24.05;5.13;;;13.30;99.90;;;;;;5082329;28;20661;-44
2023/11/14 06:27:47;;;;;;;24.42;5.20;;;13.30;99.90;;;;;;5083203;28;20135;-44
2023/11/14 06:30:13;;;;;;;26.40;5.95;;;13.30;99.90;;;;;;5081191;28;20063;-44
2023/11/14 06:32:38;;;;;;;31.45;6.00;;;13.30;99.90;;;;;;5083561;28;20059;-45
2023/11/14 06:35:05;;;;;;;24.38;4.50;;;13.30;99.90;;;;;;5082131;28;20056;-44
2023/11/14 06:37:31;;;;;;;26.52;5.43;;;13.30;99.90;;;;;;5082320;28;20020;-44
2023/11/14 06:39:56;;;;;;;26.25;5.55;;;13.30;99.90;;;;;;5082523;28;20058;-44
2023/11/14 06:42:25;;;;;;;18.50;4.20;;;13.30;99.90;;;;;;5082460;28;20024;-43
2023/11/14 06:44:51;;;;;;;23.45;6.25;;;13.30;99.90;;;;;;5081590;28;20052;-44
2023/11/14 06:47:19;;;;;;;21.00;5.20;;;13.30;99.90;;;;;;5082474;28;20016;-44
2023/11/14 06:49:44;;;;;;;28.65;5.05;;;13.30;99.90;;;;;;5075841;28;20048;-44
2023/11/14 06:52:11;;;;;;;21.55;4.97;;;13.20;99.90;;;;;;5075672;28;20028;-43
2023/11/14 06:54:40;;;;;;;24.33;5.07;;;13.20;99.90;;;;;;5078025;28;20109;-44
2023/11/14 06:57:07;;;;;;;26.88;5.22;;;13.20;99.90;;;;;;5073601;28;20016;-45
2023/11/14 06:59:33;;;;;;;26.13;4.97;;;13.20;99.90;;;;;;5080616;28;20068;-46
2023/11/14 07:02:01;;;;;;;24.25;4.50;;;13.20;99.90;;;;;;5071419;28;20479;-44
2023/11/14 07:04:31;;;;;;;28.45;5.53;;;13.20;99.90;;;;;;5080258;28;20111;-44
2023/11/14 07:06:56;;;;;;;21.17;4.82;;;13.20;99.90;;;;;;5070421;28;20016;-44
2023/11/14 07:09:25;;;;;;;22.88;4.75;;;13.20;99.90;;;;;;5068572;28;20035;-44
2023/11/14 07:11:50;;;;;;;23.85;4.38;;;13.20;99.90;;;;;;5069198;28;20391;-44
2023/11/14 07:14:19;;;;;;;23.58;5.20;;;13.20;99.90;;;;;;5061341;28;20024;-44
2023/11/14 07:16:45;;;;;;;26.23;5.55;;;13.20;99.90;;;;;;5074566;28;20137;-44
2023/11/14 07:19:11;;;;;;;20.88;4.53;;;13.20;99.90;;;;;;5060743;28;20029;-45
2023/11/14 07:21:37;;;;;;;18.45;4.32;;;13.10;99.90;;;;;;5073734;28;20069;-44
2023/11/14 07:24:03;;;;;;;25.98;5.45;;;13.10;99.90;;;;;;5061524;28;20218;-43
2023/11/14 07:26:31;;;;;;;27.58;5.43;;;13.10;99.90;;;;;;5071749;28;20106;-43
2023/11/14 07:28:57;;;;;;;21.58;5.53;;;13.10;99.90;;;;;;5062648;28;20436;-44
2023/11/14 07:31:23;;;;;;;25.42;5.25;;;13.10;99.90;;;;;;5068591;28;20104;-44
2023/11/14 07:33:48;;;;;;;29.58;6.63;;;13.00;99.90;;;;;;5065595;28;20116;-44
2023/11/14 07:36:14;;;;;;;21.15;4.70;;;13.10;99.90;;;;;;5067173;28;20372;-44
2023/11/14 07:38:39;;;;;;;23.83;5.65;;;13.10;99.90;;;;;;5067945;28;20558;-43
2023/11/14 07:41:10;;;;;;;17.77;4.70;;;13.10;99.90;;;;;;5063968;28;20059;-44
2023/11/14 07:43:37;;;;;;;27.98;5.30;;;13.10;99.90;;;;;;5069662;28;20058;-44
2023/11/14 07:46:04;;;;;;;27.38;5.28;;;13.10;99.90;;;;;;5062140;28;20074;-44
2023/11/14 07:48:30;;;;;;;23.17;4.47;;;13.10;99.90;;;;;;5059346;28;20048;-44
2023/11/14 07:50:56;;;;;;;22.40;4.82;;;13.10;99.90;;;;;;5079934;28;20147;-44
2023/11/14 07:53:21;;;;;;;24.23;5.00;;;13.10;99.90;;;;;;5069837;28;20517;-37
2023/11/14 07:55:49;;;;;;;21.40;4.38;;;13.10;99.90;;;;;;5080839;28;20324;-36
2023/11/14 07:58:15;;;;;;;29.05;5.30;;;13.20;99.90;;;;;;5067531;28;20030;-36
2023/11/14 08:00:41;;;;;;;25.10;5.72;;;13.10;99.90;;;;;;5081288;28;20027;-36
2023/11/14 08:03:07;;;;;;;23.33;4.45;;;13.10;99.90;;;;;;5068209;28;20028;-37
2023/11/14 08:05:33;;;;;;;19.83;4.38;;;13.10;99.90;;;;;;5080669;28;20028;-37
2023/11/14 08:07:59;;;;;;;19.92;5.28;;;13.10;99.90;;;;;;5068867;28;20040;-37
2023/11/14 08:10:24;;;;;;;19.63;4.05;;;13.10;99.90;;;;;;5080381;28;20028;-37
2023/11/14 08:12:50;;;;;;;24.58;4.50;;;13.10;99.90;;;;;;5072487;28;20021;-37
2023/11/14 08:15:16;;;;;;;19.67;4.55;;;13.10;99.90;;;;;;5076941;28;20667;-37
2023/11/14 08:17:42;;;;;;;24.00;5.03;;;13.10;99.90;;;;;;5075390;28;20024;-37
2023/11/14 08:20:10;;;;;;;20.02;4.15;;;13.20;99.90;;;;;;5074903;28;20024;-37
2023/11/14 08:22:35;;;;;;;17.58;3.58;;;13.20;99.90;;;;;;5076169;28;20043;-37
2023/11/14 08:25:01;;;;;;;16.02;3.50;;;13.20;99.90;;;;;;5072594;28;20039;-36
2023/11/14 08:27:30;;;;;;;14.65;3.72;;;13.20;99.90;;;;;;5079552;28;20020;-39
2023/11/14 08:29:57;;;;;;;19.38;3.95;;;13.20;99.90;;;;;;5069599;28;20589;-36
2023/11/14 08:32:25;;;;;;;17.83;3.78;;;13.20;99.90;;;;;;5078805;28;20075;-37
2023/11/14 08:34:51;;;;;;;16.95;4.03;;;13.20;99.90;;;;;;5069972;28;20028;-35
2023/11/14 08:37:16;;;;;;;23.50;4.20;;;13.20;99.90;;;;;;5079318;28;20024;-37
2023/11/14 08:39:42;;;;;;;12.55;3.33;;;13.20;99.90;;;;;;5069583;28;20052;-37
2023/11/14 08:42:11;;;;;;;12.93;3.65;;;13.20;99.90;;;;;;5081863;28;20035;-38
2023/11/14 08:44:43;;;;;;;15.98;4.47;;;13.30;99.90;;;;;;5066711;28;20143;-37
2023/11/14 08:47:12;;;;;;;22.25;4.65;;;13.30;99.90;;;;;;5081427;28;20037;-36
2023/11/14 08:49:37;;;;;;;17.80;4.18;;;13.20;99.90;;;;;;5067018;28;20055;-35
2023/11/14 08:52:03;;;;;;;13.82;3.60;;;13.20;99.90;;;;;;5080190;28;20016;-36
2023/11/14 08:54:29;;;;;;;10.88;3.00;;;13.20;99.90;;;;;;5069530;28;20032;-39
2023/11/14 08:56:55;;;;;;;18.15;4.07;;;13.20;99.90;;;;;;5078642;28;20115;-36
2023/11/14 08:59:21;;;;;;;16.25;4.28;;;13.30;99.90;;;;;;5075857;28;20024;-36
2023/11/14 09:01:47;;;;;;;16.95;3.78;;;13.30;99.90;;;;;;5064543;28;20038;-38
2023/11/14 09:04:13;;;;;;;18.27;3.90;;;13.30;99.90;;;;;;5063117;28;20550;-37
2023/11/14 09:06:39;;;;;;;17.55;4.18;;;13.20;99.90;;;;;;5076629;28;20765;-37
2023/11/14 09:09:05;;;;;;;17.60;4.10;;;13.30;99.90;;;;;;5080406;28;20023;-35
2023/11/14 09:11:31;;;;;;;20.02;4.20;;;13.30;99.90;;;;;;5074717;28;20028;-36
2023/11/14 09:13:58;;;;;;;14.23;3.95;;;13.20;99.90;;;;;;5082592;28;20016;-37
2023/11/14 09:16:24;;;;;;;16.38;4.07;;;13.30;99.90;;;;;;5073242;28;20024;-37
2023/11/14 09:18:50;;;;;;;19.50;4.75;;;13.30;99.90;;;;;;5082710;28;20025;-37
2023/11/14 09:21:15;;;;;;;13.70;4.38;;;13.40;99.90;;;;;;5072325;28;20494;-37
2023/11/14 09:23:41;;;;;;;17.15;4.75;;;13.40;99.90;;;;;;5084365;28;20032;-36
2023/11/14 09:26:07;;;;;;;18.77;3.95;;;13.40;99.90;;;;;;5075942;28;20031;-37
2023/11/14 09:28:36;;;;;;;14.55;3.72;;;13.30;99.90;;;;;;5064521;28;20021;-35
2023/11/14 09:31:04;;;;;;;20.30;4.40;;;13.30;99.90;;;;;;5075180;28;20548;-36
2023/11/14 09:33:32;;;;;;;14.23;3.90;;;13.40;99.90;;;;;;5063281;28;20163;-36
2023/11/14 09:35:58;;;;;;;12.90;3.10;;;13.40;99.90;;;;;;5069411;28;20077;-37
2023/11/14 09:38:23;;;;;;;15.43;3.53;;;13.50;99.90;;;;;;5083892;28;20031;-36
2023/11/14 09:40:49;;;;;;;17.92;3.92;;;13.50;99.90;;;;;;5074625;28;20067;-38
2023/11/14 09:43:17;;;;;;;13.75;3.45;;;13.50;99.90;;;;;;5080583;28;20680;-37
2023/11/14 09:45:45;;;;;;;19.35;4.53;;;13.60;99.90;;;;;;5075280;28;20040;-37
2023/11/14 09:48:11;;;;;;;21.63;4.63;;;13.70;99.90;;;;;;5079039;28;20616;-36
2023/11/14 09:50:45;;;;;;;25.20;5.10;;;13.70;99.90;;;;;;5079619;28;20040;-35
2023/11/14 09:53:14;;;;;;;15.73;4.43;;;13.70;99.90;;;;;;5076953;28;20028;-37
2023/11/14 09:55:44;;;;;;;22.17;4.75;;;13.80;99.90;;;;;;5079897;28;20192;-35
2023/11/14 09:58:10;;;;;;;25.77;4.78;;;13.90;99.90;;;;;;5075577;28;20418;-36
2023/11/14 10:00:37;;;;;;;24.48;4.72;;;13.90;99.90;;;;;;5081818;28;20199;-35
2023/11/14 10:03:03;;;;;;;17.85;4.00;;;13.90;99.90;;;;;;5073429;28;20023;-37
2023/11/14 10:05:30;;;;;;;20.90;4.78;;;13.90;99.90;;;;;;5082248;28;20036;-35
2023/11/14 10:07:56;;;;;;;27.13;4.45;;;13.90;99.90;;;;;;5072143;28;20016;-37
2023/11/14 10:10:22;;;;;;;26.17;5.00;;;13.90;99.90;;;;;;5082341;28;20148;-35
2023/11/14 10:12:49;;;;;;;23.83;4.80;;;13.90;99.90;;;;;;5070764;28;20539;-36
2023/11/14 10:15:27;;;;;;;27.38;6.50;;;13.80;99.90;;;;;;5082492;28;20020;-36
2023/11/14 10:17:53;;;;;;;17.23;4.30;;;13.80;99.90;;;;;;5074814;28;20107;-37
2023/11/14 10:20:19;;;;;;;22.05;5.30;;;13.80;99.90;;;;;;5062309;28;20132;-36
2023/11/14 10:22:49;;;;;;;20.10;5.15;;;13.90;99.90;;;;;;5074620;28;20484;-37
2023/11/14 10:25:28;;;;;;;23.75;5.20;;;13.90;99.90;;;;;;5062474;28;20809;-35
2023/11/14 10:27:59;;;;;;;19.13;4.03;;;13.90;99.90;;;;;;5074785;28;20052;-35
2023/11/14 10:30:47;;;;;;;20.63;4.25;;;14.00;99.90;;;;;;5062569;28;20028;-36
2023/11/14 10:33:13;;;;;;;22.38;4.63;;;14.10;99.90;;;;;;5074324;28;20050;-36
2023/11/14 10:35:43;;;;;;;28.70;5.15;;;14.20;99.90;;;;;;5062607;28;20035;-35
2023/11/14 10:38:19;;;;;;;26.02;5.40;;;14.30;99.90;;;;;;5075154;28;20023;-35
2023/11/14 10:40:49;;;;;;;26.27;5.40;;;14.40;99.90;;;;;;5063069;28;20036;-37
2023/11/14 10:43:38;;;;;;;24.42;4.82;;;14.40;99.90;;;;;;5073595;28;20103;-36
2023/11/14 10:46:08;;;;;;;24.35;5.65;;;14.40;99.90;;;;;;5042397;28;20033;-36
2023/11/14 10:48:34;;;;;;;27.42;6.10;;;14.40;99.90;;;;;;5072156;28;20399;-36
2023/11/14 10:51:02;;;;;;;22.45;4.45;;;14.40;99.90;;;;;;5061596;28;20523;-36
2023/11/14 10:53:30;;;;;;;23.85;4.93;;;14.40;99.90;;;;;;5073037;28;20039;-36
2023/11/14 10:55:56;;;;;;;21.92;4.60;;;14.50;99.90;;;;;;5063294;28;20036;-36
2023/11/14 10:58:23;;;;;;;20.42;5.05;;;14.40;99.90;;;;;;5070424;28;20609;-36
2023/11/14 11:00:50;;;;;;;19.00;4.95;;;14.50;99.90;;;;;;5065760;28;20032;-36
2023/11/14 11:03:20;;;;;;;25.55;5.25;;;14.50;99.90;;;;;;5067527;28;20027;-36
2023/11/14 11:05:47;;;;;;;24.17;5.40;;;14.40;99.90;;;;;;5067717;28;20488;-37
2023/11/14 11:08:13;;;;;;;24.92;5.28;;;14.40;99.90;;;;;;5066787;28;20582;-37
2023/11/14 11:10:39;;;;;;;20.90;4.72;;;14.40;99.90;;;;;;5068715;28;20373;-42
2023/11/14 11:13:27;;;;;;;17.83;3.67;;;14.40;99.90;;;;;;5064181;28;20440;-36
2023/11/14 11:15:56;;;;;;;16.30;4.53;;;14.40;99.90;;;;;;5069489;28;20037;-37
2023/11/14 11:18:33;;;;;;;15.90;4.32;;;14.40;99.90;;;;;;5064553;28;20029;-36
2023/11/14 11:21:09;;;;;;;15.73;3.55;;;14.40;99.90;;;;;;5070159;28;20110;-36
2023/11/14 11:24:09;;;;;;;18.08;4.30;;;14.40;99.90;;;;;;5065011;28;20029;-37
2023/11/14 11:27:17;;;;;;;17.00;3.92;;;14.40;99.90;;;;;;5066175;28;20038;-36
2023/11/14 11:30:00;;;;;;;14.75;3.70;;;14.40;99.90;;;;;;5070923;28;20610;-37
2023/11/14 11:32:31;;;;;;;17.27;4.28;;;14.40;99.90;;;;;;5041159;28;20771;-36
2023/11/14 11:35:18;;;;;;;20.60;4.20;;;14.40;99.90;;;;;;5069398;28;20100;-35
2023/11/14 11:37:57;;;;;;;23.27;4.68;;;14.40;99.90;;;;;;5042083;28;20043;-38
2023/11/14 11:40:28;;;;;;;22.95;4.85;;;14.40;99.90;;;;;;5071437;28;20064;-35
2023/11/14 11:43:13;;;;;;;17.20;4.97;;;14.40;99.90;;;;;;5061442;28;20020;-43
2023/11/14 11:45:41;;;;;;;16.13;3.70;;;14.40;99.90;;;;;;5055720;28;20054;-43
2023/11/14 11:48:30;;;;;;;22.35;4.78;;;14.50;99.90;;;;;;5051774;28;20401;-43
2023/11/14 11:51:23;;;;;;;15.93;3.90;;;14.50;99.90;;;;;;5081164;28;20024;-43
2023/11/14 11:53:49;;;;;;;21.30;4.53;;;14.50;99.90;;;;;;5080952;28;20038;-45
2023/11/14 11:56:33;;;;;;;19.88;3.78;;;14.50;99.90;;;;;;5081427;28;20513;-44
2023/11/14 11:58:59;;;;;;;14.75;3.40;;;14.60;99.90;;;;;;5081080;28;20031;-42
2023/11/14 12:01:25;;;;;;;16.90;3.95;;;14.60;99.90;;;;;;5080188;28;20020;-43
2023/11/14 12:03:51;;;;;;;19.65;5.28;;;14.50;99.90;;;;;;5081481;28;20044;-43
2023/11/14 12:06:17;;;;;;;11.82;3.72;;;14.60;99.90;;;;;;5081045;28;20558;-43
2023/11/14 12:08:43;;;;;;;18.83;4.43;;;14.60;99.90;;;;;;5081938;28;20024;-43
2023/11/14 12:11:14;;;;;;;12.80;3.42;;;14.50;99.90;;;;;;5080766;28;20031;-45
2023/11/14 12:13:42;;;;;;;14.93;3.60;;;14.50;99.90;;;;;;5060779;28;20028;-47
2023/11/14 12:16:07;;;;;;;14.20;3.42;;;14.50;99.90;;;;;;5074456;28;20072;-44
2023/11/14 12:18:33;;;;;;;9.57;3.70;;;14.50;99.90;;;;;;5080082;28;20027;-45
2023/11/14 12:20:59;;;;;;;18.05;3.88;;;14.50;99.90;;;;;;5078332;28;20108;-44
2023/11/14 12:23:25;;;;;;;12.10;3.90;;;14.40;99.90;;;;;;5080784;28;20016;-44
2023/11/14 12:25:51;;;;;;;12.25;3.30;;;14.40;99.90;;;;;;5079974;28;20062;-44
2023/11/14 12:28:16;;;;;;;10.82;3.05;;;14.40;99.90;;;;;;5079437;28;20028;-43
2023/11/14 12:31:01;;;;;;;11.20;3.17;;;14.50;99.90;;;;;;5080748;28;20031;-44
2023/11/14 12:33:26;;;;;;;12.50;3.40;;;14.50;99.90;;;;;;5080531;28;20028;-44
2023/11/14 12:35:57;;;;;;;11.50;3.58;;;14.50;99.90;;;;;;5080036;28;20031;-44
2023/11/14 12:38:37;;;;;;;11.45;3.42;;;14.50;99.90;;;;;;5079420;28;20028;-43